createdAt,value
2018-07-14T00:00:59.909Z,8.17
2018-07-14T00:03:29.020Z,8.53
2018-07-14T00:05:57.269Z,7.30
2018-07-14T00:08:25.542Z,7.90
2018-07-14T00:10:53.781Z,9.20
2018-07-14T00:13:22.332Z,8.50
2018-07-14T00:15:50.613Z,8.27
2018-07-14T00:18:18.890Z,8.30
2018-07-14T00:20:47.126Z,9.20
2018-07-14T00:23:15.455Z,8.30
2018-07-14T00:25:49.040Z,8.57
2018-07-14T00:28:17.314Z,8.57
2018-07-14T00:30:45.614Z,8.13
2018-07-14T00:33:13.883Z,9.13
2018-07-14T00:35:41.889Z,8.30
2018-07-14T00:38:10.149Z,7.43
2018-07-14T00:40:38.497Z,8.97
2018-07-14T00:43:06.753Z,10.00
2018-07-14T00:45:34.989Z,9.17
2018-07-14T00:48:03.217Z,8.77
2018-07-14T00:50:31.510Z,9.40
2018-07-14T00:52:59.813Z,9.30
2018-07-14T00:55:28.073Z,9.00
2018-07-14T00:57:56.330Z,9.07
2018-07-14T01:00:24.534Z,9.00
2018-07-14T01:02:52.846Z,9.10
2018-07-14T01:05:21.094Z,8.80
2018-07-14T01:07:49.361Z,8.97
2018-07-14T01:10:17.591Z,8.97
2018-07-14T01:12:45.858Z,9.13
2018-07-14T01:15:14.169Z,10.37
2018-07-14T01:17:42.432Z,8.70
2018-07-14T01:20:10.686Z,9.43
2018-07-14T01:22:38.897Z,8.23
2018-07-14T01:25:06.937Z,9.00
2018-07-14T01:27:35.165Z,9.30
2018-07-14T01:30:03.515Z,9.47
2018-07-14T01:32:32.338Z,10.37
2018-07-14T01:35:00.908Z,9.47
2018-07-14T01:37:29.150Z,9.70
2018-07-14T01:39:57.413Z,9.60
2018-07-14T01:42:25.713Z,10.40
2018-07-14T01:44:54.006Z,9.88
2018-07-14T01:47:22.342Z,9.50
2018-07-14T01:49:50.580Z,9.95
2018-07-14T01:52:18.552Z,9.78
2018-07-14T01:54:46.856Z,11.23
2018-07-14T01:57:15.128Z,10.70
2018-07-14T01:59:43.396Z,9.80
2018-07-14T02:02:11.729Z,10.20
2018-07-14T02:04:39.953Z,10.60
2018-07-14T02:07:08.211Z,9.78
2018-07-14T02:09:36.453Z,10.53
2018-07-14T02:12:04.714Z,10.03
2018-07-14T02:14:32.986Z,10.85
2018-07-14T02:17:01.225Z,10.28
2018-07-14T02:19:29.481Z,10.23
2018-07-14T02:21:57.797Z,9.95
2018-07-14T02:24:26.078Z,10.90
2018-07-14T02:26:54.444Z,10.20
2018-07-14T02:29:22.712Z,10.60
2018-07-14T02:31:51.506Z,10.93
2018-07-14T02:34:19.822Z,10.80
2018-07-14T02:36:48.195Z,10.68
2018-07-14T02:39:16.541Z,11.50
2018-07-14T02:41:44.577Z,10.97
2018-07-14T02:44:12.953Z,11.10
2018-07-14T02:46:41.210Z,11.25
2018-07-14T02:49:09.850Z,9.90
2018-07-14T02:51:38.081Z,11.10
2018-07-14T02:54:06.310Z,11.65
2018-07-14T02:56:34.554Z,12.47
2018-07-14T02:59:02.883Z,10.98
2018-07-14T03:01:31.138Z,10.88
2018-07-14T03:03:59.152Z,10.50
2018-07-14T03:06:27.447Z,10.85
2018-07-14T03:08:55.715Z,10.82
2018-07-14T03:11:24.022Z,10.65
2018-07-14T03:13:52.277Z,11.57
2018-07-14T03:16:20.563Z,10.75
2018-07-14T03:18:48.790Z,11.28
2018-07-14T03:21:17.047Z,12.00
2018-07-14T03:23:45.327Z,11.63
2018-07-14T03:26:13.301Z,12.25
2018-07-14T03:28:41.954Z,11.00
2018-07-14T03:31:10.337Z,11.47
2018-07-14T03:33:38.569Z,12.45
2018-07-14T03:36:06.869Z,11.63
2018-07-14T03:38:35.094Z,10.95
2018-07-14T03:41:03.394Z,11.90
2018-07-14T03:43:31.666Z,12.68
2018-07-14T03:46:00.044Z,11.30
2018-07-14T03:48:28.297Z,11.05
2018-07-14T03:50:57.161Z,11.57
2018-07-14T03:53:25.442Z,11.55
2018-07-14T03:55:54.032Z,11.63
2018-07-14T03:58:22.329Z,11.88
2018-07-14T04:00:50.686Z,11.43
2018-07-14T04:03:18.998Z,11.73
2018-07-14T04:05:47.225Z,11.27
2018-07-14T04:08:15.478Z,11.10
2018-07-14T04:10:43.697Z,11.08
2018-07-14T04:13:12.357Z,11.70
2018-07-14T04:15:40.605Z,12.03
2018-07-14T04:18:08.840Z,11.57
2018-07-14T04:20:37.601Z,11.43
2018-07-14T04:23:06.010Z,10.95
2018-07-14T04:25:34.302Z,11.70
2018-07-14T04:28:02.373Z,11.15
2018-07-14T04:30:30.676Z,10.90
2018-07-14T04:32:58.925Z,10.78
2018-07-14T04:35:27.169Z,10.93
2018-07-14T04:37:55.390Z,11.07
2018-07-14T04:40:23.618Z,11.60
2018-07-14T04:42:52.023Z,11.57
2018-07-14T04:45:20.313Z,11.27
2018-07-14T04:47:48.607Z,11.50
2018-07-14T04:50:16.837Z,10.45
2018-07-14T04:52:45.122Z,12.07
2018-07-14T04:55:13.346Z,10.90
2018-07-14T04:57:41.612Z,10.23
2018-07-14T05:00:10.783Z,10.60
2018-07-14T05:02:39.057Z,10.47
2018-07-14T05:05:07.313Z,10.90
2018-07-14T05:07:35.621Z,10.03
2018-07-14T05:10:03.902Z,10.47
2018-07-14T05:12:32.178Z,9.77
2018-07-14T05:15:00.177Z,9.20
2018-07-14T05:17:28.405Z,9.53
2018-07-14T05:19:56.740Z,7.93
2018-07-14T05:22:24.984Z,8.53
2018-07-14T05:24:53.259Z,7.50
2018-07-14T05:27:21.661Z,9.23
2018-07-14T05:29:49.940Z,9.50
2018-07-14T05:32:18.258Z,9.40
2018-07-14T05:34:46.608Z,9.17
2018-07-14T05:37:14.913Z,8.07
2018-07-14T05:39:43.178Z,7.60
2018-07-14T05:42:11.145Z,7.50
2018-07-14T05:44:39.404Z,7.77
2018-07-14T05:47:07.774Z,8.43
2018-07-14T05:49:36.025Z,8.03
2018-07-14T05:52:04.277Z,8.40
2018-07-14T05:54:32.485Z,8.00
2018-07-14T05:57:00.762Z,7.97
2018-07-14T05:59:28.765Z,8.20
2018-07-14T06:01:57.049Z,9.10
2018-07-14T06:04:25.462Z,8.60
2018-07-14T06:06:53.779Z,8.20
2018-07-14T06:09:22.127Z,8.03
2018-07-14T06:11:50.511Z,9.10
2018-07-14T06:14:18.973Z,7.47
2018-07-14T06:16:47.109Z,8.27
2018-07-14T06:19:15.123Z,8.10
2018-07-14T06:21:43.534Z,8.30
2018-07-14T06:24:11.770Z,7.93
2018-07-14T06:26:40.000Z,8.37
2018-07-14T06:29:08.217Z,8.70
2018-07-14T06:31:36.200Z,6.90
2018-07-14T06:34:04.558Z,6.33
2018-07-14T06:36:32.905Z,7.43
2018-07-14T06:39:01.169Z,7.20
2018-07-14T06:41:29.433Z,6.83
2018-07-14T06:43:57.707Z,6.60
2018-07-14T06:46:25.994Z,6.60
2018-07-14T06:48:54.284Z,6.93
2018-07-14T06:51:22.501Z,7.83
2018-07-14T06:53:50.812Z,6.40
2018-07-14T06:56:19.189Z,6.07
2018-07-14T06:58:47.651Z,6.10
2018-07-14T07:01:15.902Z,6.70
2018-07-14T07:03:44.224Z,5.80
2018-07-14T07:06:12.475Z,5.57
2018-07-14T07:08:40.774Z,5.77
2018-07-14T07:11:09.018Z,5.30
2018-07-14T07:13:37.330Z,5.77
2018-07-14T07:16:05.615Z,4.77
2018-07-14T07:18:33.944Z,5.23
2018-07-14T07:21:02.275Z,4.77
2018-07-14T07:23:30.526Z,4.27
2018-07-14T07:25:58.768Z,4.90
2018-07-14T07:28:27.051Z,4.60
2018-07-14T07:30:55.268Z,4.27
2018-07-14T07:33:23.502Z,4.50
2018-07-14T07:35:51.754Z,4.77
2018-07-14T07:38:20.039Z,4.83
2018-07-14T07:40:48.206Z,4.57
2018-07-14T07:43:16.562Z,4.17
2018-07-14T07:45:44.906Z,4.20
2018-07-14T07:48:13.186Z,20.70
2018-07-14T07:50:41.416Z,24.03
2018-07-14T07:53:09.739Z,14.87
2018-07-14T07:55:38.048Z,7.70
2018-07-14T07:58:06.257Z,4.57
2018-07-14T08:00:34.535Z,3.67
2018-07-14T08:03:02.795Z,59.27
2018-07-14T08:05:31.053Z,34.17
2018-07-14T08:07:59.371Z,22.57
2018-07-14T08:10:27.657Z,13.77
2018-07-14T08:12:55.936Z,3.97
2018-07-14T08:15:24.202Z,10.87
2018-07-14T08:17:52.769Z,3.97
2018-07-14T08:20:21.056Z,12.00
2018-07-14T08:22:49.355Z,3.73
2018-07-14T08:25:17.631Z,3.30
2018-07-14T08:27:45.926Z,3.87
2018-07-14T08:30:14.205Z,3.47
2018-07-14T08:32:42.418Z,23.67
2018-07-14T08:35:10.677Z,17.27
2018-07-14T08:37:38.961Z,4.50
2018-07-14T08:40:07.184Z,4.80
2018-07-14T08:42:35.453Z,4.30
2018-07-14T08:45:03.698Z,3.90
2018-07-14T08:47:31.990Z,4.37
2018-07-14T08:50:00.318Z,5.17
2018-07-14T08:52:28.945Z,4.90
2018-07-14T08:54:57.271Z,5.10
2018-07-14T08:57:25.626Z,3.67
2018-07-14T08:59:53.887Z,3.70
2018-07-14T09:02:21.965Z,4.00
2018-07-14T09:04:50.323Z,6.97
2018-07-14T09:07:18.602Z,3.97
2018-07-14T09:09:47.298Z,4.13
2018-07-14T09:12:15.542Z,3.57
2018-07-14T09:14:43.850Z,3.30
2018-07-14T09:17:12.242Z,3.80
2018-07-14T09:19:40.480Z,2.73
2018-07-14T09:22:08.740Z,3.40
2018-07-14T09:24:36.995Z,4.13
2018-07-14T09:27:05.281Z,3.90
2018-07-14T09:29:33.526Z,3.20
2018-07-14T09:32:01.953Z,3.90
2018-07-14T09:34:30.336Z,6.13
2018-07-14T09:36:58.634Z,4.00
2018-07-14T09:39:26.951Z,3.80
2018-07-14T09:41:55.331Z,3.80
2018-07-14T09:44:23.654Z,3.43
2018-07-14T09:46:51.942Z,2.80
2018-07-14T09:49:20.555Z,2.80
2018-07-14T09:51:48.840Z,3.23
2018-07-14T09:54:17.126Z,2.80
2018-07-14T09:56:45.506Z,2.37
2018-07-14T09:59:13.759Z,3.20
2018-07-14T10:01:42.109Z,3.07
2018-07-14T10:04:10.370Z,2.70
2018-07-14T10:06:38.605Z,2.57
2018-07-14T10:09:06.990Z,3.20
2018-07-14T10:11:35.328Z,2.37
2018-07-14T10:14:03.593Z,2.50
2018-07-14T10:16:31.608Z,2.73
2018-07-14T10:18:59.985Z,2.33
2018-07-14T10:21:28.310Z,3.17
2018-07-14T10:23:56.596Z,2.83
2018-07-14T10:26:24.934Z,2.80
2018-07-14T10:28:53.186Z,2.70
2018-07-14T10:31:21.451Z,2.27
2018-07-14T10:33:49.869Z,2.63
2018-07-14T10:36:18.054Z,2.70
2018-07-14T10:38:46.365Z,2.20
2018-07-14T10:41:14.989Z,2.40
2018-07-14T10:43:43.382Z,2.70
2018-07-14T10:46:11.627Z,2.50
2018-07-14T10:48:39.955Z,2.50
2018-07-14T10:51:08.589Z,3.00
2018-07-14T10:53:36.878Z,2.10
2018-07-14T10:56:05.674Z,2.37
2018-07-14T10:58:34.031Z,2.23
2018-07-14T11:01:02.329Z,2.80
2018-07-14T11:03:30.630Z,2.50
2018-07-14T11:05:58.926Z,2.27
2018-07-14T11:08:27.194Z,2.63
2018-07-14T11:10:55.619Z,2.90
2018-07-14T11:13:24.046Z,2.10
2018-07-14T11:15:52.289Z,2.20
2018-07-14T11:18:20.558Z,2.30
2018-07-14T11:20:48.797Z,2.30
2018-07-14T11:23:17.076Z,2.00
2018-07-14T11:25:45.314Z,2.40
2018-07-14T11:28:13.631Z,2.30
2018-07-14T11:30:41.965Z,2.20
2018-07-14T11:33:10.376Z,3.10
2018-07-14T11:35:38.666Z,2.73
2018-07-14T11:38:06.932Z,3.47
2018-07-14T11:40:35.284Z,3.43
2018-07-14T11:43:03.554Z,2.80
2018-07-14T11:45:32.605Z,3.30
2018-07-14T11:48:01.104Z,3.60
2018-07-14T11:50:29.298Z,3.00
2018-07-14T11:52:57.577Z,2.97
2018-07-14T11:55:25.814Z,2.80
2018-07-14T11:57:54.054Z,2.40
2018-07-14T12:00:22.618Z,2.50
2018-07-14T12:02:50.847Z,2.53
2018-07-14T12:05:19.165Z,2.70
2018-07-14T12:07:47.245Z,2.00
2018-07-14T12:10:15.599Z,2.43
2018-07-14T12:12:43.953Z,2.00
2018-07-14T12:15:12.209Z,2.37
2018-07-14T12:17:40.492Z,2.37
2018-07-14T12:20:08.870Z,2.60
2018-07-14T12:22:37.158Z,3.20
2018-07-14T12:25:05.503Z,2.67
2018-07-14T12:27:33.757Z,2.80
2018-07-14T12:30:02.035Z,2.40
2018-07-14T12:32:30.281Z,2.50
2018-07-14T12:34:58.586Z,2.30
2018-07-14T12:37:26.849Z,2.40
2018-07-14T12:39:55.075Z,2.40
2018-07-14T12:42:23.331Z,2.50
2018-07-14T12:44:51.634Z,2.23
2018-07-14T12:47:19.918Z,2.60
2018-07-14T12:49:48.313Z,2.33
2018-07-14T12:52:16.586Z,2.60
2018-07-14T12:54:44.831Z,2.40
2018-07-14T12:57:13.040Z,2.00
2018-07-14T12:59:41.282Z,2.07
2018-07-14T13:02:09.615Z,2.23
2018-07-14T13:04:37.917Z,1.90
2018-07-14T13:07:06.257Z,1.67
2018-07-14T13:09:34.557Z,1.50
2018-07-14T13:12:02.812Z,1.73
2018-07-14T13:14:31.068Z,1.70
2018-07-14T13:16:59.342Z,1.70
2018-07-14T13:19:27.565Z,1.43
2018-07-14T13:21:55.787Z,1.83
2018-07-14T13:24:24.092Z,1.50
2018-07-14T13:26:52.409Z,1.60
2018-07-14T13:29:20.624Z,1.70
2018-07-14T13:31:49.029Z,1.50
2018-07-14T13:34:17.454Z,1.57
2018-07-14T13:36:45.699Z,1.40
2018-07-14T13:39:13.970Z,1.60
2018-07-14T13:41:42.322Z,1.40
2018-07-14T13:44:10.958Z,2.17
2018-07-14T13:46:39.177Z,1.97
2018-07-14T13:49:07.479Z,1.43
2018-07-14T13:51:35.728Z,1.87
2018-07-14T13:54:04.022Z,1.40
2018-07-14T13:56:32.353Z,1.63
2018-07-14T13:59:00.631Z,1.40
2018-07-14T14:01:28.862Z,1.30
2018-07-14T14:03:57.090Z,1.70
2018-07-14T14:06:25.358Z,1.40
2018-07-14T14:08:53.729Z,1.70
2018-07-14T14:11:22.003Z,1.60
2018-07-14T14:13:50.246Z,1.50
2018-07-14T14:16:18.494Z,1.40
2018-07-14T14:18:46.888Z,2.30
2018-07-14T14:21:15.121Z,1.87
2018-07-14T14:23:43.077Z,1.43
2018-07-14T14:26:11.385Z,1.30
2018-07-14T14:28:39.678Z,1.70
2018-07-14T14:31:08.063Z,1.20
2018-07-14T14:33:36.470Z,1.50
2018-07-14T14:36:04.716Z,1.33
2018-07-14T14:38:33.029Z,1.30
2018-07-14T14:41:01.311Z,1.63
2018-07-14T14:43:29.549Z,1.37
2018-07-14T14:45:57.829Z,1.53
2018-07-14T14:48:26.093Z,1.77
2018-07-14T14:50:54.365Z,1.53
2018-07-14T14:53:22.597Z,1.60
2018-07-14T14:55:50.901Z,1.40
2018-07-14T14:58:19.208Z,1.40
2018-07-14T15:00:47.486Z,1.53
2018-07-14T15:03:15.737Z,1.23
2018-07-14T15:05:44.006Z,1.97
2018-07-14T15:08:12.333Z,2.03
2018-07-14T15:10:40.585Z,1.63
2018-07-14T15:13:08.917Z,1.70
2018-07-14T15:15:37.336Z,1.40
2018-07-14T15:18:05.605Z,1.50
2018-07-14T15:20:33.889Z,1.20
2018-07-14T15:23:02.121Z,1.20
2018-07-14T15:25:30.338Z,1.40
2018-07-14T15:27:58.702Z,1.13
2018-07-14T15:30:26.952Z,1.47
2018-07-14T15:32:55.136Z,2.30
2018-07-14T15:35:23.226Z,1.97
2018-07-14T15:37:51.464Z,1.60
2018-07-14T15:40:19.763Z,1.40
2018-07-14T15:42:48.012Z,1.40
2018-07-14T15:45:16.325Z,1.20
2018-07-14T15:47:44.590Z,1.73
2018-07-14T15:50:12.816Z,1.70
2018-07-14T15:52:41.158Z,1.63
2018-07-14T15:55:09.417Z,1.60
2018-07-14T15:57:37.804Z,2.00
2018-07-14T16:00:06.421Z,1.83
2018-07-14T16:02:34.631Z,1.70
2018-07-14T16:05:03.009Z,1.50
2018-07-14T16:07:31.286Z,1.30
2018-07-14T16:09:59.515Z,1.23
2018-07-14T16:12:27.764Z,1.47
2018-07-14T16:14:56.001Z,1.70
2018-07-14T16:17:24.237Z,1.50
2018-07-14T16:19:52.497Z,1.60
2018-07-14T16:22:20.766Z,1.30
2018-07-14T16:24:48.992Z,1.33
2018-07-14T16:27:17.271Z,1.77
2018-07-14T16:29:45.485Z,1.40
2018-07-14T16:32:13.761Z,1.60
2018-07-14T16:34:41.983Z,1.80
2018-07-14T16:37:10.527Z,1.50
2018-07-14T16:39:38.748Z,1.10
2018-07-14T16:42:07.065Z,2.23
2018-07-14T16:44:35.346Z,2.10
2018-07-14T16:47:03.568Z,1.40
2018-07-14T16:49:31.857Z,1.70
2018-07-14T16:52:00.098Z,1.43
2018-07-14T16:54:28.601Z,1.47
2018-07-14T16:56:56.950Z,1.30
2018-07-14T16:59:25.221Z,1.50
2018-07-14T17:01:53.530Z,2.60
2018-07-14T17:04:21.877Z,1.40
2018-07-14T17:06:50.137Z,1.30
2018-07-14T17:09:18.374Z,1.30
2018-07-14T17:11:46.677Z,1.73
2018-07-14T17:14:15.085Z,1.40
2018-07-14T17:16:43.290Z,1.80
2018-07-14T17:19:11.740Z,1.30
2018-07-14T17:21:39.962Z,1.40
2018-07-14T17:24:08.291Z,1.60
2018-07-14T17:26:36.501Z,1.70
2018-07-14T17:29:04.854Z,1.77
2018-07-14T17:31:33.129Z,1.50
2018-07-14T17:34:01.396Z,1.83
2018-07-14T17:36:29.678Z,1.60
2018-07-14T17:38:57.941Z,1.67
2018-07-14T17:41:26.174Z,1.53
2018-07-14T17:43:54.513Z,1.73
2018-07-14T17:46:23.030Z,1.13
2018-07-14T17:48:51.265Z,1.83
2018-07-14T17:51:19.303Z,1.30
2018-07-14T17:53:47.468Z,1.40
2018-07-14T17:56:15.704Z,1.60
2018-07-14T17:58:43.942Z,1.60
2018-07-14T18:01:12.211Z,1.43
2018-07-14T18:03:40.441Z,2.00
2018-07-14T18:06:08.713Z,1.83
2018-07-14T18:08:36.938Z,1.77
2018-07-14T18:11:05.217Z,1.60
2018-07-14T18:13:33.529Z,1.53
2018-07-14T18:16:01.874Z,1.40
2018-07-14T18:18:30.208Z,1.70
2018-07-14T18:20:58.434Z,1.70
2018-07-14T18:23:26.646Z,1.70
2018-07-14T18:25:54.929Z,1.70
2018-07-14T18:28:23.273Z,1.70
2018-07-14T18:30:51.515Z,1.83
2018-07-14T18:33:19.764Z,1.93
2018-07-14T18:35:47.977Z,2.37
2018-07-14T18:38:16.368Z,2.00
2018-07-14T18:40:44.611Z,2.17
2018-07-14T18:43:12.922Z,2.00
2018-07-14T18:45:41.163Z,2.30
2018-07-14T18:48:09.438Z,2.63
2018-07-14T18:50:37.669Z,2.47
2018-07-14T18:53:06.163Z,2.20
2018-07-14T18:55:34.378Z,2.20
2018-07-14T18:58:02.626Z,2.20
2018-07-14T19:00:30.926Z,2.27
2018-07-14T19:02:59.327Z,1.80
2018-07-14T19:05:27.501Z,2.30
2018-07-14T19:07:55.809Z,2.33
2018-07-14T19:10:23.829Z,2.20
2018-07-14T19:12:51.869Z,2.37
2018-07-14T19:15:19.899Z,2.33
2018-07-14T19:17:48.251Z,2.17
2018-07-14T19:20:16.556Z,2.40
2018-07-14T19:22:44.832Z,2.77
2018-07-14T19:25:13.134Z,2.23
2018-07-14T19:27:41.096Z,2.17
2018-07-14T19:30:09.914Z,2.37
2018-07-14T19:32:38.231Z,2.17
2018-07-14T19:35:06.841Z,2.50
2018-07-14T19:37:35.050Z,2.60
2018-07-14T19:40:03.034Z,2.27
2018-07-14T19:42:31.299Z,3.13
2018-07-14T19:44:59.274Z,2.90
2018-07-14T19:47:27.694Z,3.00
2018-07-14T19:49:55.945Z,2.50
2018-07-14T19:52:24.224Z,2.80
2018-07-14T19:54:52.637Z,2.70
2018-07-14T19:57:20.884Z,2.70
2018-07-14T19:59:49.240Z,3.20
2018-07-14T20:02:17.543Z,3.27
2018-07-14T20:04:45.837Z,5.37
2018-07-14T20:07:14.158Z,3.63
2018-07-14T20:09:42.201Z,3.30
2018-07-14T20:12:10.451Z,4.17
2018-07-14T20:14:38.790Z,4.27
2018-07-14T20:17:07.105Z,4.40
2018-07-14T20:19:35.526Z,5.60
2018-07-14T20:22:03.513Z,5.07
2018-07-14T20:24:31.549Z,4.90
2018-07-14T20:26:59.538Z,5.60
2018-07-14T20:29:27.929Z,4.87
2018-07-14T20:31:56.271Z,4.97
2018-07-14T20:34:24.540Z,4.77
2018-07-14T20:36:52.799Z,4.80
2018-07-14T20:39:20.883Z,4.40
2018-07-14T20:41:49.081Z,4.20
2018-07-14T20:44:17.286Z,4.60
2018-07-14T20:46:45.279Z,4.30
2018-07-14T20:49:13.531Z,5.13
2018-07-14T20:51:41.801Z,5.60
2018-07-14T20:54:10.038Z,5.23
2018-07-14T20:56:38.317Z,6.07
2018-07-14T20:59:06.597Z,6.43
2018-07-14T21:01:35.202Z,6.27
2018-07-14T21:04:03.483Z,6.07
2018-07-14T21:06:31.750Z,6.23
2018-07-14T21:08:59.729Z,5.30
2018-07-14T21:11:28.022Z,5.73
2018-07-14T21:13:56.274Z,5.70
2018-07-14T21:16:24.596Z,6.03
2018-07-14T21:18:52.666Z,6.27
2018-07-14T21:21:21.115Z,6.10
2018-07-14T21:23:49.202Z,6.37
2018-07-14T21:26:17.528Z,6.67
2018-07-14T21:28:45.745Z,6.60
2018-07-14T21:31:14.018Z,6.40
2018-07-14T21:33:43.010Z,6.90
2018-07-14T21:36:11.669Z,6.80
2018-07-14T21:38:39.880Z,6.20
2018-07-14T21:41:08.202Z,6.67
2018-07-14T21:43:36.977Z,7.10
2018-07-14T21:46:05.345Z,6.80
2018-07-14T21:48:33.770Z,6.67
2018-07-14T21:51:02.069Z,6.40
2018-07-14T21:53:30.331Z,6.10
2018-07-14T21:55:58.342Z,6.27
2018-07-14T21:58:26.593Z,5.80
2018-07-14T22:01:04.475Z,6.30
2018-07-14T22:03:33.588Z,6.73
2018-07-14T22:06:02.191Z,6.33
2018-07-14T22:08:30.434Z,6.60
2018-07-14T22:10:58.698Z,5.53
2018-07-14T22:13:26.964Z,5.90
2018-07-14T22:15:55.002Z,5.73
2018-07-14T22:18:23.298Z,6.33
2018-07-14T22:20:52.074Z,6.60
2018-07-14T22:23:20.397Z,6.93
2018-07-14T22:25:48.681Z,6.90
2018-07-14T22:28:17.049Z,7.10
2018-07-14T22:30:45.337Z,6.80
2018-07-14T22:33:13.403Z,8.40
2018-07-14T22:35:41.857Z,7.50
2018-07-14T22:38:09.893Z,6.67
2018-07-14T22:40:38.057Z,6.60
2018-07-14T22:43:06.457Z,6.53
2018-07-14T22:45:34.773Z,5.60
2018-07-14T22:48:02.766Z,6.37
2018-07-14T22:50:31.068Z,6.47
2018-07-14T22:52:59.372Z,6.23
2018-07-14T22:55:27.400Z,6.60
2018-07-14T22:57:55.609Z,6.30
2018-07-14T23:00:23.909Z,6.50
2018-07-14T23:02:52.171Z,5.63
2018-07-14T23:05:20.494Z,5.67
2018-07-14T23:07:48.713Z,6.00
2018-07-14T23:10:16.985Z,6.20
2018-07-14T23:12:45.214Z,5.93
2018-07-14T23:15:13.501Z,7.47
2018-07-14T23:17:41.725Z,6.93
2018-07-14T23:20:10.036Z,6.20
2018-07-14T23:22:38.290Z,5.93
2018-07-14T23:25:06.515Z,5.10
2018-07-14T23:27:34.751Z,5.60
2018-07-14T23:30:03.060Z,5.70
2018-07-14T23:32:31.293Z,6.53
2018-07-14T23:34:59.969Z,5.53
2018-07-14T23:37:28.240Z,5.60
2018-07-14T23:39:56.471Z,4.93
2018-07-14T23:42:24.760Z,5.10
2018-07-14T23:44:53.001Z,5.00
2018-07-14T23:47:21.333Z,4.27
2018-07-14T23:49:49.292Z,3.63
2018-07-14T23:52:17.910Z,4.50
2018-07-14T23:54:45.959Z,4.10
2018-07-14T23:57:14.262Z,4.00
2018-07-14T23:59:42.589Z,3.60
